Time;durP1;ratioP1;P1;durP2;ratioP2;P2;SDS_P1;SDS_P2;PMS_P1;PMS_P2;Temp;Humidity;BMP_temperature;BMP_pressure;BME280_temperature;BME280_humidity;BME280_pressure;Samples;Min_cycle;Max_cycle;Signal;HPM_P1;HPM_P2
2021/06/12 00:00:29;;;;;;;18.62;6.55;;;;;;;14.12;96.62;99005.20;1687091;83;21118;-69
2021/06/12 00:02:51;;;;;;;14.53;6.78;;;;;;;14.10;96.68;98998.43;1691175;83;20971;-70
2021/06/12 00:05:18;;;;;;;14.18;7.08;;;;;;;14.07;96.77;98997.75;1696835;83;21040;-69
2021/06/12 00:07:45;;;;;;;22.05;7.40;;;;;;;14.03;96.66;98999.03;1672729;83;21605;-71
2021/06/12 00:10:18;;;;;;;17.07;7.10;;;;;;;13.97;96.51;99002.39;1684200;83;21657;-70
2021/06/12 00:12:47;;;;;;;20.92;6.97;;;;;;;13.91;96.45;98999.08;1697008;83;21003;-69
2021/06/12 00:15:18;;;;;;;14.35;6.47;;;;;;;13.84;96.37;98999.71;1698381;83;20993;-69
2021/06/12 00:17:45;;;;;;;15.13;6.78;;;;;;;13.79;96.87;99006.05;1698471;82;21146;-70
2021/06/12 00:20:17;;;;;;;17.50;7.53;;;;;;;13.78;97.25;98996.97;1718808;82;20959;-69
2021/06/12 00:22:43;;;;;;;12.35;6.62;;;;;;;13.76;97.59;98992.95;1735901;82;20974;-70
2021/06/12 00:25:15;;;;;;;18.87;7.55;;;;;;;13.77;98.14;98989.84;1730202;82;21551;-69
2021/06/12 00:27:41;;;;;;;16.73;6.72;;;;;;;13.80;98.41;98995.24;1729682;81;20974;-69
2021/06/12 00:30:10;;;;;;;13.93;6.53;;;;;;;13.79;98.34;98997.20;1723774;82;21061;-69
2021/06/12 00:32:36;;;;;;;21.95;7.78;;;;;;;13.77;98.32;98993.98;1718148;81;21097;-69
2021/06/12 00:35:08;;;;;;;14.87;7.22;;;;;;;13.76;98.27;98990.20;1734793;81;21718;-69
2021/06/12 00:37:34;;;;;;;16.80;7.75;;;;;;;13.73;98.16;98993.08;1730407;82;21043;-70
2021/06/12 00:40:01;;;;;;;15.93;8.35;;;;;;;13.71;98.17;98982.97;1724013;82;20873;-69
2021/06/12 00:42:27;;;;;;;24.55;7.95;;;;;;;13.68;98.10;98990.56;1722283;81;21051;-69
2021/06/12 00:44:54;;;;;;;20.15;7.22;;;;;;;13.66;98.14;98989.31;1702314;82;20865;-69
2021/06/12 00:47:21;;;;;;;20.02;8.28;;;;;;;13.63;98.13;98988.05;1665639;82;21527;-70
2021/06/12 00:49:47;;;;;;;18.32;8.25;;;;;;;13.60;97.95;98990.70;1728906;82;21140;-70
2021/06/12 00:52:13;;;;;;;17.17;8.40;;;;;;;13.56;98.08;98986.46;1739181;82;20976;-69
2021/06/12 00:54:39;;;;;;;21.37;9.23;;;;;;;13.53;98.07;98985.78;1730129;81;21017;-69
2021/06/12 00:57:06;;;;;;;23.65;8.45;;;;;;;13.49;98.13;98985.67;1719931;81;20979;-70
2021/06/12 00:59:32;;;;;;;17.62;8.65;;;;;;;13.47;98.15;98989.93;1726174;82;21006;-69
2021/06/12 01:02:00;;;;;;;21.93;9.03;;;;;;;13.44;98.05;98983.16;1723235;82;21155;-69
2021/06/12 01:04:27;;;;;;;18.73;8.55;;;;;;;13.41;98.07;98987.19;1724097;82;20926;-70
2021/06/12 01:06:53;;;;;;;13.38;8.03;;;;;;;13.37;98.03;98987.08;1707058;82;21108;-69
2021/06/12 01:09:24;;;;;;;24.63;8.10;;;;;;;13.31;98.00;98988.47;1715713;81;20916;-70
2021/06/12 01:12:40;;;;;;;15.85;6.85;;;;;;;13.24;98.15;98988.27;1698900;81;21069;-69
2021/06/12 01:15:10;;;;;;;15.18;7.72;;;;;;;13.18;98.46;98984.95;1723807;82;21162;-68
2021/06/12 01:17:50;;;;;;;18.40;7.35;;;;;;;13.18;99.10;98978.06;1729903;82;21016;-70
2021/06/12 01:20:25;;;;;;;12.37;7.55;;;;;;;13.19;99.42;98978.29;1724354;82;20905;-69
2021/06/12 01:23:18;;;;;;;14.45;7.83;;;;;;;13.20;99.80;98987.36;1722438;82;21052;-69
2021/06/12 01:26:04;;;;;;;14.95;7.83;;;;;;;13.26;100.00;98987.93;1731620;82;21034;-68
2021/06/12 01:29:24;;;;;;;19.05;8.60;;;;;;;13.34;100.00;98984.21;1725328;82;21113;-68
2021/06/12 01:31:50;;;;;;;10.28;6.72;;;;;;;13.33;100.00;98981.23;1722822;82;21109;-68
2021/06/12 01:34:20;;;;;;;16.07;7.28;;;;;;;13.27;100.00;98984.02;1730790;81;20982;-68
2021/06/12 01:36:46;;;;;;;14.55;7.33;;;;;;;13.26;100.00;98990.11;1734748;82;20947;-68
2021/06/12 01:39:13;;;;;;;11.78;7.47;;;;;;;13.26;100.00;98990.69;1717431;82;20944;-68
2021/06/12 01:41:41;;;;;;;13.88;7.40;;;;;;;13.26;100.00;98993.44;1732548;81;21101;-68
2021/06/12 01:44:09;;;;;;;20.48;7.75;;;;;;;13.27;100.00;98998.61;1716318;83;21072;-69
2021/06/12 01:46:36;;;;;;;15.60;6.97;;;;;;;13.25;100.00;98998.73;1735112;81;20920;-70
2021/06/12 01:49:03;;;;;;;17.40;6.83;;;;;;;13.24;100.00;99006.77;1728510;82;20893;-68
2021/06/12 01:51:29;;;;;;;9.85;7.55;;;;;;;13.27;100.00;99011.02;1734086;81;20988;-68
2021/06/12 01:53:56;;;;;;;9.68;7.35;;;;;;;13.31;100.00;99016.03;1733438;82;21094;-69
2021/06/12 01:56:26;;;;;;;11.45;6.22;;;;;;;13.33;100.00;99007.41;1725539;82;20900;-69
2021/06/12 01:58:52;;;;;;;8.60;6.37;;;;;;;13.38;100.00;99009.36;1704336;83;20979;-70
2021/06/12 02:01:22;;;;;;;9.48;7.15;;;;;;;13.41;100.00;99006.48;1702520;83;21005;-69
2021/06/12 02:03:48;;;;;;;9.25;6.58;;;;;;;13.41;100.00;99005.11;1668564;85;21099;-71
2021/06/12 02:06:16;;;;;;;14.75;6.83;;;;;;;13.39;100.00;99006.83;1654681;86;21117;-70
2021/06/12 02:08:44;;;;;;;10.63;6.22;;;;;;;13.37;100.00;99000.06;1695766;83;20977;-69
2021/06/12 02:11:16;;;;;;;10.98;6.62;;;;;;;13.35;100.00;99003.16;1710198;83;20993;-69
2021/06/12 02:13:44;;;;;;;10.90;6.42;;;;;;;13.33;100.00;98998.57;1653994;84;21010;-69
2021/06/12 02:16:10;;;;;;;11.48;7.12;;;;;;;13.31;100.00;99001.45;1676853;84;21549;-72
2021/06/12 02:18:37;;;;;;;10.75;6.78;;;;;;;13.29;100.00;98996.28;1685777;84;21150;-69
2021/06/12 02:21:04;;;;;;;14.65;7.00;;;;;;;13.29;100.00;99000.41;1700640;84;21436;-69
2021/06/12 02:23:31;;;;;;;16.57;7.15;;;;;;;13.28;100.00;99003.55;1707124;83;20912;-69
2021/06/12 02:25:58;;;;;;;13.48;6.85;;;;;;;13.24;100.00;98999.30;1662829;85;21553;-69
2021/06/12 02:28:35;;;;;;;15.08;7.17;;;;;;;13.23;100.00;99012.85;1645237;85;20959;-68
2021/06/12 02:31:13;;;;;;;14.75;7.28;;;;;;;13.20;100.00;99009.41;1708632;83;21134;-69
2021/06/12 02:33:40;;;;;;;13.28;7.70;;;;;;;13.18;100.00;99015.27;1694849;83;20978;-69
2021/06/12 02:36:08;;;;;;;14.80;6.75;;;;;;;13.19;100.00;99018.25;1687883;83;21735;-69
2021/06/12 02:38:35;;;;;;;10.60;6.70;;;;;;;13.24;100.00;99017.79;1704516;82;21598;-69
2021/06/12 02:41:01;;;;;;;18.95;7.78;;;;;;;13.28;100.00;99014.00;1729181;81;21030;-69
2021/06/12 02:43:28;;;;;;;14.33;7.65;;;;;;;13.31;100.00;99016.61;1702717;83;21105;-69
2021/06/12 02:45:55;;;;;;;16.75;7.78;;;;;;;13.33;100.00;99018.44;1728581;81;20931;-69
2021/06/12 02:48:21;;;;;;;15.63;8.78;;;;;;;13.36;100.00;99026.02;1701913;82;21007;-69
2021/06/12 02:50:48;;;;;;;13.62;8.23;;;;;;;13.39;100.00;99028.08;1725520;81;20943;-69
2021/06/12 02:53:16;;;;;;;16.25;8.80;;;;;;;13.46;100.00;99021.41;1702378;82;20984;-69
2021/06/12 02:55:50;;;;;;;11.05;7.50;;;;;;;13.57;100.00;99031.39;1723547;82;21986;-69
2021/06/12 02:58:21;;;;;;;10.40;7.42;;;;;;;13.65;100.00;99032.64;1727784;82;20941;-69
2021/06/12 03:00:48;;;;;;;14.07;8.47;;;;;;;13.75;100.00;99035.48;1722481;82;20927;-69
2021/06/12 03:03:15;;;;;;;11.50;7.35;;;;;;;13.85;100.00;99041.32;1727429;82;21566;-69
2021/06/12 03:05:56;;;;;;;13.38;7.37;;;;;;;13.95;100.00;99037.23;1729441;81;20978;-69
2021/06/12 03:08:24;;;;;;;10.20;7.10;;;;;;;14.05;100.00;99038.13;1728037;81;21139;-68
2021/06/12 03:10:52;;;;;;;9.68;7.03;;;;;;;14.12;100.00;99038.91;1720607;82;20891;-70
2021/06/12 03:13:23;;;;;;;12.30;6.50;;;;;;;14.21;100.00;99038.98;1726461;82;20978;-69
2021/06/12 03:15:50;;;;;;;12.23;7.00;;;;;;;14.30;100.00;99041.59;1706654;81;21058;-71
2021/06/12 03:18:16;;;;;;;9.45;6.78;;;;;;;14.37;100.00;99039.02;1715920;81;21464;-72
2021/06/12 03:20:43;;;;;;;10.53;7.03;;;;;;;14.42;100.00;99040.17;1720054;81;20996;-73
2021/06/12 03:23:09;;;;;;;11.05;6.62;;;;;;;14.49;100.00;99034.02;1713979;82;21023;-73
2021/06/12 03:25:36;;;;;;;11.22;6.80;;;;;;;14.53;100.00;99032.95;1693967;83;20948;-73
2021/06/12 03:28:03;;;;;;;11.00;8.13;;;;;;;14.60;100.00;99035.68;1709092;83;20941;-72
2021/06/12 03:30:30;;;;;;;11.25;7.03;;;;;;;14.65;100.00;99036.80;1703882;83;20926;-73
2021/06/12 03:32:56;;;;;;;12.05;7.30;;;;;;;14.71;100.00;99032.62;1702000;83;21071;-73
2021/06/12 03:35:24;;;;;;;8.43;6.58;;;;;;;14.76;100.00;99030.97;1709108;84;20931;-73
2021/06/12 03:37:50;;;;;;;11.80;6.70;;;;;;;14.81;100.00;99031.52;1694417;83;21010;-73
2021/06/12 03:40:17;;;;;;;10.32;6.92;;;;;;;14.88;100.00;99042.52;1705185;83;20957;-73
2021/06/12 03:42:45;;;;;;;9.65;7.08;;;;;;;14.94;100.00;99032.23;1679848;83;20964;-73
2021/06/12 03:45:13;;;;;;;9.63;7.10;;;;;;;15.01;100.00;99040.70;1718694;80;21163;-78
2021/06/12 03:47:39;;;;;;;12.35;8.20;;;;;;;15.08;100.00;99050.52;1722825;82;21082;-74
2021/06/12 03:50:10;;;;;;;11.00;6.80;;;;;;;15.15;100.00;99049.31;1708787;82;21000;-71
2021/06/12 03:52:37;;;;;;;8.23;6.45;;;;;;;15.22;100.00;99046.50;1727823;82;20975;-72
2021/06/12 03:55:06;;;;;;;13.72;7.55;;;;;;;15.27;100.00;99046.23;1714789;82;20919;-73
2021/06/12 03:57:33;;;;;;;13.43;7.47;;;;;;;15.33;100.00;99046.98;1726692;82;21174;-72
2021/06/12 04:00:00;;;;;;;13.55;7.15;;;;;;;15.39;99.51;99048.30;1694481;82;20940;-72
2021/06/12 04:02:26;;;;;;;12.05;7.33;;;;;;;15.43;98.74;99049.77;1716541;82;20948;-73
2021/06/12 04:04:52;;;;;;;9.43;7.67;;;;;;;15.47;98.29;99048.69;1696580;82;21019;-72
2021/06/12 04:07:20;;;;;;;11.95;8.08;;;;;;;15.51;97.50;99055.11;1695358;83;21477;-73
2021/06/12 04:09:47;;;;;;;9.73;7.33;;;;;;;15.57;97.16;99057.05;1702028;83;21543;-74
2021/06/12 04:12:14;;;;;;;12.35;8.40;;;;;;;15.63;97.08;99056.16;1680736;83;21610;-72
2021/06/12 04:14:40;;;;;;;12.95;7.80;;;;;;;15.72;97.39;99061.71;1686344;83;20934;-72
2021/06/12 04:17:06;;;;;;;17.65;8.03;;;;;;;15.79;96.11;99059.69;1701468;83;21034;-72
2021/06/12 04:19:33;;;;;;;12.98;7.90;;;;;;;15.83;96.11;99060.56;1692599;83;20942;-74
2021/06/12 04:21:59;;;;;;;13.05;7.45;;;;;;;15.91;96.53;99065.09;1708030;83;21044;-74
2021/06/12 04:24:26;;;;;;;17.12;8.48;;;;;;;15.99;96.05;99059.92;1702984;83;20994;-74
2021/06/12 04:26:54;;;;;;;10.65;7.47;;;;;;;16.07;95.46;99062.27;1681868;83;21030;-73
2021/06/12 04:29:21;;;;;;;13.25;7.75;;;;;;;16.14;95.29;99061.03;1673805;84;20939;-72
2021/06/12 04:31:47;;;;;;;12.45;7.72;;;;;;;16.24;95.20;99061.80;1710413;83;20945;-72
2021/06/12 04:34:14;;;;;;;10.40;7.78;;;;;;;16.35;95.42;99066.97;1683880;83;21119;-72
2021/06/12 04:36:40;;;;;;;11.70;7.53;;;;;;;16.48;95.01;99065.65;1694303;83;21532;-72
2021/06/12 04:39:07;;;;;;;18.05;8.43;;;;;;;16.58;94.13;99060.68;1695929;83;20987;-73
2021/06/12 04:41:34;;;;;;;9.40;7.08;;;;;;;16.66;93.54;99051.36;1692447;83;21718;-72
2021/06/12 04:44:02;;;;;;;9.75;7.72;;;;;;;16.73;93.65;99059.80;1694139;83;20953;-74
2021/06/12 04:46:29;;;;;;;11.88;8.70;;;;;;;16.87;94.34;99067.55;1700391;83;21981;-73
2021/06/12 04:48:55;;;;;;;10.43;8.48;;;;;;;16.95;93.52;99064.53;1696563;83;21057;-72
2021/06/12 04:51:23;;;;;;;15.43;8.48;;;;;;;17.04;93.15;99059.55;1698796;83;21048;-71
2021/06/12 04:53:49;;;;;;;12.55;9.33;;;;;;;17.15;92.40;99061.11;1702622;83;21045;-72
2021/06/12 04:56:15;;;;;;;11.65;8.38;;;;;;;17.23;91.32;99066.19;1713286;82;21043;-73
2021/06/12 04:58:43;;;;;;;10.35;8.53;;;;;;;17.30;91.37;99070.47;1727355;82;21980;-77
2021/06/12 05:01:10;;;;;;;10.30;8.53;;;;;;;17.37;91.00;99066.39;1729161;81;21078;-74
2021/06/12 05:03:36;;;;;;;11.88;8.38;;;;;;;17.45;90.40;99065.33;1733902;82;21052;-75
2021/06/12 05:06:04;;;;;;;11.83;8.85;;;;;;;17.53;89.61;99062.87;1731799;81;21008;-75
2021/06/12 05:08:30;;;;;;;15.88;8.48;;;;;;;17.59;88.77;99069.70;1727948;81;21000;-77
2021/06/12 05:10:58;;;;;;;11.63;7.65;;;;;;;17.63;88.27;99066.40;1728299;81;20899;-75
2021/06/12 05:13:24;;;;;;;11.15;7.80;;;;;;;17.71;87.97;99070.11;1728832;82;20838;-75
2021/06/12 05:15:51;;;;;;;15.78;7.97;;;;;;;17.80;86.96;99074.80;1726949;82;21623;-75
2021/06/12 05:18:18;;;;;;;10.25;7.50;;;;;;;17.91;87.35;99074.95;1725405;82;20861;-75
2021/06/12 05:20:45;;;;;;;11.63;7.55;;;;;;;18.04;87.53;99083.23;1732613;82;20956;-70
2021/06/12 05:23:12;;;;;;;9.13;6.42;;;;;;;18.17;87.53;99074.88;1730043;82;21113;-71
2021/06/12 05:25:38;;;;;;;8.50;6.80;;;;;;;18.29;85.84;99071.86;1723935;82;21051;-71
2021/06/12 05:28:05;;;;;;;9.90;5.80;;;;;;;18.39;83.91;99075.95;1728784;81;20986;-83
2021/06/12 05:30:31;;;;;;;8.33;6.10;;;;;;;18.46;82.76;99067.69;1731334;82;21499;-81
2021/06/12 05:32:57;;;;;;;9.93;6.22;;;;;;;18.54;81.90;99065.77;1727997;82;20947;-83
2021/06/12 05:35:24;;;;;;;8.98;6.35;;;;;;;18.64;80.84;99067.89;1723360;82;21102;-86
2021/06/12 05:37:51;;;;;;;8.98;5.40;;;;;;;18.73;80.09;99069.19;1725963;82;21411;-76
2021/06/12 05:40:18;;;;;;;7.85;5.55;;;;;;;18.81;79.70;99068.67;1728969;82;20931;-87
2021/06/12 05:42:45;;;;;;;7.25;6.00;;;;;;;18.90;80.33;99064.98;1732456;81;21482;-76
2021/06/12 05:45:12;;;;;;;7.50;5.17;;;;;;;18.99;79.85;99062.69;1727855;82;20974;-86
2021/06/12 05:47:38;;;;;;;11.55;5.65;;;;;;;19.13;79.35;99060.59;1725052;82;21076;-77
2021/06/12 05:50:06;;;;;;;6.15;5.12;;;;;;;19.26;79.45;99056.92;1720109;82;20876;-83
2021/06/12 05:52:32;;;;;;;7.60;5.50;;;;;;;19.38;78.53;99056.03;1731617;82;20904;-75
2021/06/12 05:54:59;;;;;;;12.05;5.92;;;;;;;19.50;77.84;99052.14;1723954;82;20942;-71
2021/06/12 05:57:25;;;;;;;8.33;4.92;;;;;;;19.58;75.47;99052.43;1729706;81;21003;-70
2021/06/12 05:59:52;;;;;;;6.60;5.58;;;;;;;19.63;75.24;99050.67;1731682;82;21110;-73
2021/06/12 06:02:18;;;;;;;8.53;6.20;;;;;;;19.69;74.38;99065.80;1729116;82;20899;-72
2021/06/12 06:04:45;;;;;;;13.20;7.25;;;;;;;19.70;75.72;99057.65;1725916;82;21152;-72
2021/06/12 06:07:11;;;;;;;9.08;6.30;;;;;;;19.80;77.61;99058.91;1718866;82;21079;-70
2021/06/12 06:09:38;;;;;;;13.22;6.58;;;;;;;19.94;77.62;99058.19;1717778;82;21035;-72
2021/06/12 06:12:06;;;;;;;9.10;6.05;;;;;;;20.05;76.05;99054.86;1708534;82;22041;-70
2021/06/12 06:14:32;;;;;;;8.83;6.25;;;;;;;20.14;76.16;99053.91;1735361;82;21014;-71
2021/06/12 06:16:59;;;;;;;10.53;6.30;;;;;;;20.22;74.64;99061.08;1737362;82;21016;-73
2021/06/12 06:19:25;;;;;;;9.08;6.12;;;;;;;20.26;74.51;99054.92;1738379;82;21004;-70
2021/06/12 06:21:52;;;;;;;10.30;6.67;;;;;;;20.36;76.21;99061.14;1733331;81;21003;-70
2021/06/12 06:24:18;;;;;;;5.90;5.03;;;;;;;20.48;76.64;99067.58;1720716;82;21103;-71
2021/06/12 06:26:45;;;;;;;6.60;5.60;;;;;;;20.63;74.47;99067.83;1713229;82;20974;-70
2021/06/12 06:29:11;;;;;;;10.72;5.97;;;;;;;20.69;72.73;99062.06;1740140;81;20893;-72
2021/06/12 06:31:39;;;;;;;8.78;5.25;;;;;;;20.73;72.21;99057.30;1728096;82;20911;-71
2021/06/12 06:34:05;;;;;;;11.33;5.17;;;;;;;20.80;72.02;99057.28;1715111;81;21440;-72
2021/06/12 06:36:32;;;;;;;8.20;5.10;;;;;;;20.86;70.62;99055.70;1714458;82;21963;-73
2021/06/12 06:38:58;;;;;;;9.95;5.80;;;;;;;20.93;69.86;99053.52;1720215;82;21022;-73
2021/06/12 06:41:25;;;;;;;7.78;5.15;;;;;;;20.98;68.90;99055.31;1728313;82;21071;-73
2021/06/12 06:43:52;;;;;;;8.63;5.62;;;;;;;21.04;68.22;99053.73;1726724;82;21032;-73
2021/06/12 06:46:18;;;;;;;6.85;5.17;;;;;;;21.10;67.70;99047.16;1730911;82;21011;-73
2021/06/12 06:48:44;;;;;;;8.40;4.75;;;;;;;21.19;67.76;99050.95;1734876;82;21096;-73
2021/06/12 06:51:11;;;;;;;7.17;4.67;;;;;;;21.32;68.58;99045.19;1732476;82;20936;-73
2021/06/12 06:53:39;;;;;;;4.47;4.03;;;;;;;21.46;67.70;99050.73;1729357;82;20967;-73
2021/06/12 06:56:06;;;;;;;6.08;4.30;;;;;;;21.56;65.33;99051.92;1731868;82;20967;-72
2021/06/12 06:58:32;;;;;;;6.40;4.87;;;;;;;21.59;63.77;99053.31;1735015;81;21107;-72
2021/06/12 07:00:59;;;;;;;7.55;4.45;;;;;;;21.59;62.42;99056.11;1732580;81;22417;-72
2021/06/12 07:03:25;;;;;;;7.00;5.22;;;;;;;21.57;65.12;99054.31;1731236;82;20932;-72
2021/06/12 07:05:55;;;;;;;6.83;5.20;;;;;;;21.59;63.01;99052.52;1723953;82;20944;-72
2021/06/12 07:08:21;;;;;;;8.15;4.78;;;;;;;21.60;63.97;99051.32;1731688;82;20909;-71
2021/06/12 07:10:50;;;;;;;6.80;4.90;;;;;;;21.77;65.46;99053.28;1725030;82;21040;-71
2021/06/12 07:13:21;;;;;;;9.68;4.65;;;;;;;21.89;63.01;99051.46;1732134;82;21545;-71
2021/06/12 07:15:49;;;;;;;9.30;4.70;;;;;;;22.01;64.47;99053.00;1722489;81;20988;-72
2021/06/12 07:18:15;;;;;;;6.85;4.33;;;;;;;22.17;65.65;99046.38;1736514;81;20940;-72
2021/06/12 07:20:46;;;;;;;5.75;4.00;;;;;;;22.38;65.41;99050.48;1738393;81;21533;-72
2021/06/12 07:23:11;;;;;;;8.80;4.10;;;;;;;22.49;63.30;99057.42;1725402;82;21004;-72
2021/06/12 07:25:38;;;;;;;5.62;3.87;;;;;;;22.56;61.20;99058.76;1741615;81;21490;-71
2021/06/12 07:28:05;;;;;;;7.92;3.87;;;;;;;22.62;61.19;99059.12;1738806;81;20927;-71
2021/06/12 07:30:38;;;;;;;6.60;3.55;;;;;;;22.72;61.24;99054.08;1735288;82;21003;-72
2021/06/12 07:32:59;;;;;;;7.90;3.30;;;;;;;22.86;60.09;99058.81;1738658;82;21557;-72
2021/06/12 07:35:26;;;;;;;6.25;3.60;;;;;;;22.98;58.13;99057.73;1738556;81;20853;-71
2021/06/12 07:37:55;;;;;;;5.90;2.90;;;;;;;23.02;58.91;99059.91;1721747;82;21141;-72
2021/06/12 07:40:22;;;;;;;8.13;3.72;;;;;;;23.05;58.90;99059.08;1723193;82;21478;-72
2021/06/12 07:42:48;;;;;;;6.12;3.27;;;;;;;23.13;59.22;99062.59;1734021;82;20960;-72
2021/06/12 07:45:16;;;;;;;7.53;3.60;;;;;;;23.28;58.84;99067.48;1733213;82;20872;-72
2021/06/12 07:47:43;;;;;;;5.85;3.37;;;;;;;23.42;59.24;99060.97;1722105;81;20986;-71
2021/06/12 07:50:10;;;;;;;3.92;3.33;;;;;;;23.47;56.80;99066.92;1722605;82;21112;-71
2021/06/12 07:52:36;;;;;;;4.70;3.20;;;;;;;23.51;56.45;99065.48;1733246;82;21002;-71
2021/06/12 07:55:04;;;;;;;5.60;3.20;;;;;;;23.60;56.58;99061.03;1736098;81;21110;-72
2021/06/12 07:57:30;;;;;;;8.38;3.75;;;;;;;23.67;53.69;99064.36;1731324;81;21172;-72
2021/06/12 07:59:57;;;;;;;4.40;3.60;;;;;;;23.65;54.20;99067.58;1719641;82;21526;-71
2021/06/12 08:02:25;;;;;;;5.42;3.37;;;;;;;23.65;56.04;99059.78;1731253;82;20884;-72
2021/06/12 08:04:51;;;;;;;4.22;3.47;;;;;;;23.68;55.72;99061.75;1738491;82;21546;-71
2021/06/12 08:07:19;;;;;;;4.22;3.20;;;;;;;23.73;55.18;99061.27;1732569;82;21010;-72
2021/06/12 08:09:46;;;;;;;4.55;3.33;;;;;;;23.86;55.63;99059.54;1734851;81;20972;-72
2021/06/12 08:12:14;;;;;;;4.08;3.67;;;;;;;23.99;54.92;99062.61;1734135;81;20925;-72
2021/06/12 08:14:40;;;;;;;4.83;3.37;;;;;;;24.06;53.08;99058.92;1731163;81;22094;-72
2021/06/12 08:17:06;;;;;;;3.70;3.40;;;;;;;24.09;54.06;99056.08;1717269;81;20909;-72
2021/06/12 08:19:35;;;;;;;3.85;3.42;;;;;;;24.20;54.17;99051.75;1728149;82;20960;-72
2021/06/12 08:22:01;;;;;;;6.12;4.20;;;;;;;24.39;54.64;99051.11;1724230;82;21006;-72
2021/06/12 08:24:30;;;;;;;5.65;3.67;;;;;;;24.66;54.64;99053.35;1727482;82;20911;-72
2021/06/12 08:26:57;;;;;;;4.35;3.95;;;;;;;24.97;54.38;99058.92;1738629;82;21440;-72
2021/06/12 08:29:24;;;;;;;3.80;3.33;;;;;;;25.33;53.32;99054.34;1732635;82;21168;-72
2021/06/12 08:31:50;;;;;;;4.65;3.37;;;;;;;25.65;49.58;99048.77;1724272;80;21525;-72
2021/06/12 08:34:17;;;;;;;4.17;3.77;;;;;;;25.90;50.25;99046.30;1727353;82;20922;-72
2021/06/12 08:36:43;;;;;;;7.60;4.03;;;;;;;26.12;51.98;99043.83;1727739;81;20948;-72
2021/06/12 08:39:10;;;;;;;5.47;3.80;;;;;;;26.31;50.64;99038.05;1726630;82;21206;-72
2021/06/12 08:41:36;;;;;;;4.00;3.70;;;;;;;26.56;48.66;99037.52;1724088;81;20911;-72
2021/06/12 08:44:02;;;;;;;3.50;3.17;;;;;;;26.80;47.08;99044.58;1724533;82;20975;-72
2021/06/12 08:46:29;;;;;;;4.17;3.75;;;;;;;27.06;47.30;99054.06;1729968;82;21423;-72
2021/06/12 08:48:56;;;;;;;6.28;3.62;;;;;;;27.25;45.21;99041.89;1732951;81;20984;-72
2021/06/12 08:51:22;;;;;;;4.53;3.52;;;;;;;27.36;44.97;99045.85;1732850;81;21506;-72
2021/06/12 08:53:49;;;;;;;6.22;4.03;;;;;;;27.44;43.39;99043.65;1737839;81;21213;-72
2021/06/12 08:56:16;;;;;;;5.60;4.22;;;;;;;27.48;43.87;99043.73;1722398;82;20953;-72
2021/06/12 08:58:43;;;;;;;4.10;3.70;;;;;;;27.61;42.66;99042.42;1727834;82;21499;-72
2021/06/12 09:01:10;;;;;;;4.50;3.90;;;;;;;27.65;44.29;99043.74;1720066;82;21055;-73
2021/06/12 09:03:45;;;;;;;3.55;3.25;;;;;;;27.71;44.40;99041.97;1733165;82;21535;-73
2021/06/12 09:06:14;;;;;;;4.40;4.00;;;;;;;27.45;43.58;99038.98;1732232;82;20983;-72
2021/06/12 09:08:42;;;;;;;9.20;4.05;;;;;;;27.29;43.98;99045.41;1736644;82;20944;-73
2021/06/12 09:11:16;;;;;;;7.10;4.33;;;;;;;27.31;45.20;99046.38;1726593;81;21431;-72
2021/06/12 09:13:47;;;;;;;4.20;3.80;;;;;;;27.47;44.07;99042.15;1726054;82;21058;-72
2021/06/12 09:16:38;;;;;;;7.50;5.22;;;;;;;27.64;44.01;99034.49;1728378;82;21071;-72
2021/06/12 09:19:15;;;;;;;11.00;6.67;;;;;;;27.90;43.75;99038.98;1724191;81;21047;-73
2021/06/12 09:21:48;;;;;;;6.75;4.40;;;;;;;28.02;43.31;99033.22;1723104;81;20899;-72
2021/06/12 09:24:46;;;;;;;7.22;4.05;;;;;;;28.32;44.14;99026.31;1733542;81;20888;-71
2021/06/12 09:27:14;;;;;;;7.17;4.28;;;;;;;28.63;42.66;99025.19;1741435;81;20940;-72
2021/06/12 09:29:46;;;;;;;7.95;4.22;;;;;;;28.68;41.81;99018.97;1733469;81;21780;-72
2021/06/12 09:32:16;;;;;;;3.42;3.12;;;;;;;28.76;42.48;99020.95;1737514;81;20974;-72
2021/06/12 09:34:44;;;;;;;4.80;3.20;;;;;;;28.89;40.88;99018.92;1737112;81;21040;-73
2021/06/12 09:37:17;;;;;;;3.98;3.12;;;;;;;29.04;41.28;99010.78;1731331;82;21133;-73
2021/06/12 09:40:12;;;;;;;7.08;4.15;;;;;;;29.17;39.12;99010.14;1723985;82;20871;-72
2021/06/12 09:42:49;;;;;;;4.55;2.95;;;;;;;29.30;39.07;99014.36;1731762;82;21084;-73
2021/06/12 09:45:32;;;;;;;6.08;3.02;;;;;;;29.60;37.97;99005.86;1735865;81;20936;-73
2021/06/12 09:48:17;;;;;;;3.35;2.80;;;;;;;29.68;38.45;99004.36;1725478;82;20952;-73
2021/06/12 09:50:47;;;;;;;3.30;3.00;;;;;;;29.79;38.52;99004.77;1732931;81;21030;-73
2021/06/12 09:53:22;;;;;;;3.98;2.55;;;;;;;29.91;37.93;98998.27;1721746;81;21030;-73
2021/06/12 09:55:49;;;;;;;3.58;2.87;;;;;;;29.90;36.74;98993.86;1733777;82;21162;-72
2021/06/12 09:58:16;;;;;;;3.27;2.87;;;;;;;29.79;38.55;99003.36;1736800;82;20948;-73
2021/06/12 10:00:46;;;;;;;5.65;3.30;;;;;;;29.82;36.19;98998.20;1733976;81;20947;-74
2021/06/12 10:03:26;;;;;;;3.37;3.08;;;;;;;29.92;36.78;98997.02;1740897;81;20899;-72
2021/06/12 10:06:12;;;;;;;3.58;2.70;;;;;;;29.97;35.92;98991.40;1734117;82;20992;-71
2021/06/12 10:08:41;;;;;;;6.10;3.27;;;;;;;29.87;37.22;98990.54;1724037;82;21769;-72
2021/06/12 10:11:08;;;;;;;5.30;2.90;;;;;;;29.97;36.66;98989.36;1717714;82;20897;-72
2021/06/12 10:13:35;;;;;;;5.60;2.87;;;;;;;29.96;35.69;98984.16;1730189;82;20984;-72
2021/06/12 10:16:04;;;;;;;3.15;2.67;;;;;;;29.86;35.39;98987.55;1731095;80;20916;-73
2021/06/12 10:18:30;;;;;;;3.83;2.90;;;;;;;29.76;36.40;98981.02;1727172;81;21084;-72
2021/06/12 10:20:57;;;;;;;6.00;3.37;;;;;;;29.84;35.58;98978.73;1704658;83;21751;-73
2021/06/12 10:23:24;;;;;;;3.75;3.35;;;;;;;29.75;35.80;98976.61;1722920;82;20944;-72
2021/06/12 10:25:52;;;;;;;3.65;3.25;;;;;;;29.72;35.81;98978.16;1735924;81;21008;-73
2021/06/12 10:28:21;;;;;;;3.08;2.55;;;;;;;29.80;35.47;98968.95;1738433;81;20904;-72
2021/06/12 10:30:47;;;;;;;4.03;2.47;;;;;;;29.88;35.96;98970.90;1718835;82;21063;-72
2021/06/12 10:33:17;;;;;;;3.83;2.67;;;;;;;29.92;37.18;98965.90;1727378;82;21540;-73
2021/06/12 10:35:44;;;;;;;2.67;2.27;;;;;;;30.14;35.35;98962.44;1730363;81;20984;-73
2021/06/12 10:38:17;;;;;;;4.10;2.95;;;;;;;30.04;33.21;98960.80;1732454;82;21585;-73
2021/06/12 10:40:50;;;;;;;4.67;2.50;;;;;;;29.61;34.13;98965.02;1746642;82;21004;-72
2021/06/12 10:43:23;;;;;;;7.05;3.10;;;;;;;29.02;35.50;98959.59;1725804;81;21033;-71
2021/06/12 10:46:10;;;;;;;3.67;2.92;;;;;;;28.52;35.98;98956.34;1737315;81;21960;-73
2021/06/12 10:48:46;;;;;;;4.40;2.65;;;;;;;28.17;37.41;98952.57;1735275;82;20889;-73
2021/06/12 10:51:31;;;;;;;3.17;2.62;;;;;;;28.09;39.40;98951.20;1729788;82;20984;-72
2021/06/12 10:56:51;;;;;;;3.92;2.95;;;;;;;28.03;38.15;98951.58;1730709;82;20964;-72
2021/06/12 10:59:49;;;;;;;7.65;2.80;;;;;;;27.81;37.19;98938.72;1729515;82;21071;-72
2021/06/12 11:05:05;;;;;;;8.55;5.85;;;;;;;27.51;39.05;98944.19;1726796;82;21121;-73
2021/06/12 11:07:38;;;;;;;4.20;2.95;;;;;;;27.49;39.73;98945.87;1733107;82;20987;-72
2021/06/12 11:10:19;;;;;;;3.22;2.35;;;;;;;27.40;40.48;98947.91;1734104;82;20955;-73
2021/06/12 11:12:52;;;;;;;2.80;2.37;;;;;;;27.51;40.23;98944.19;1721479;82;21070;-74
2021/06/12 11:15:27;;;;;;;3.12;2.50;;;;;;;27.87;38.59;98936.93;1735373;81;20904;-72
2021/06/12 11:18:20;;;;;;;2.67;2.45;;;;;;;28.11;37.11;98934.61;1726526;82;21920;-72
2021/06/12 11:21:01;;;;;;;5.08;2.75;;;;;;;27.98;37.67;98933.80;1728972;82;21522;-71
2021/06/12 11:23:54;;;;;;;3.27;2.97;;;;;;;27.69;37.48;98937.30;1730863;82;21438;-72
2021/06/12 11:26:18;;;;;;;3.75;2.92;;;;;;;27.51;39.90;98942.78;1735619;82;21752;-72
2021/06/12 11:28:47;;;;;;;5.12;3.05;;;;;;;27.35;38.94;98937.80;1735869;81;20848;-72
2021/06/12 11:31:33;;;;;;;3.55;2.77;;;;;;;27.16;40.04;98945.13;1729929;82;20940;-72
2021/06/12 11:34:23;;;;;;;5.42;2.92;;;;;;;27.10;40.31;98946.93;1728888;82;21091;-72
2021/06/12 11:37:15;;;;;;;4.67;2.77;;;;;;;27.24;41.99;98945.91;1737154;82;20956;-71
2021/06/12 11:39:51;;;;;;;5.40;2.95;;;;;;;27.40;39.76;98942.89;1710659;82;21132;-72
2021/06/12 11:42:17;;;;;;;5.75;2.67;;;;;;;27.44;40.46;98940.77;1724699;82;21031;-76
2021/06/12 11:44:44;;;;;;;6.30;2.90;;;;;;;27.52;39.78;98925.25;1722399;82;21003;-77